St Catherines, United Kingdom
Current Conditions -  °F | °C
As of 3:50 PM on Wednesday 28 Jan 2015 (Local Time) from EGEO Reporting Station
Light Snow Light Snow  
Wind Chill: 26°   Ceiling: Unl
Heat Index: 39°   Visibility: 6mi
Dew Point: 30°   Wind: 38mph
Humidity: 70%   Direction: 300°WNW
Pressure: 29.18"   Gusts: NA
Location:  56.22°N, 5.03°W
Report Text: EGEO 281550Z 30033KT 9999 -RASN SCT014 SCT028CB 04/M01 Q0988
Loading
Personal Weather Stations






























Interactive Weather Map New forecast layout! Learn more

10-Day Weather Forecast

Advertisements
Track Severe Weather on mobile